Terminal Aerodrome Forecast
Issued by NWS

Home | Current Version | Previous Version | Text Only | Print | Product List | Glossary On
Versions: 1 2 3 4 5 6 7 8 9 10 11 12 13
000
FTUS44 KJAN 241141
TAFGTR
TAF
KGTR 241141Z 2412/2512 23005KT 6SM BR BKN008 BKN250
     FM241330 22005KT P6SM SCT015 SCT250
     FM241730 22005KT P6SM VCTS SCT030 BKN050CB BKN250
     FM250500 21003KT P6SM BKN130=

USA.gov is the U.S. government's official web portal to all federal, state and local government web resources and services.